Canonbie, United Kingdom
Current Conditions -  °F | °C
As of 11:50 AM on Sunday 21 Dec 2014 (Local Time) from EGOM Reporting Station
Light Rain Light Rain  
Wind Chill: 37°   Ceiling: 200
Heat Index: 46°   Visibility: 1.8mi
Dew Point: 46°   Wind: 32mph
Humidity: 100%   Direction: 240°WSW
Pressure: 29.85"   Gusts: NA
Location:  55.08°N, 2.94°W
Report Text: EGOM 211150Z AUTO 24028KT 2900 -RA OVC002/// 08/08 Q1011
Loading
Personal Weather Stations






























Interactive Weather Map New forecast layout! Learn more

10-Day Weather Forecast

Advertisements
Track Severe Weather on mobile